Time;durP1;ratioP1;P1;durP2;ratioP2;P2;SDS_P1;SDS_P2;PMS_P1;PMS_P2;Temp;Humidity;BMP_temperature;BMP_pressure;BME280_temperature;BME280_humidity;BME280_pressure;Samples;Min_cycle;Max_cycle;Signal;HPM_P1;HPM_P2
2023/12/15 00:00:44;;;;;;;3.53;3.00;;;21.40;57.60;;;;;;5092041;28;20209;-66
2023/12/15 00:03:10;;;;;;;4.13;3.47;;;21.40;57.60;;;;;;5093607;28;20181;-66
2023/12/15 00:05:35;;;;;;;4.53;3.67;;;21.40;57.60;;;;;;5093471;28;20170;-67
2023/12/15 00:08:01;;;;;;;4.00;3.60;;;21.40;57.60;;;;;;5093392;28;20679;-67
2023/12/15 00:10:26;;;;;;;3.93;2.90;;;21.40;57.60;;;;;;5093424;28;20173;-67
2023/12/15 00:12:52;;;;;;;5.03;3.83;;;21.40;57.60;;;;;;5093298;28;20170;-64
2023/12/15 00:15:18;;;;;;;4.60;3.73;;;21.40;57.60;;;;;;5093326;28;20170;-67
2023/12/15 00:17:43;;;;;;;4.50;3.53;;;21.40;57.60;;;;;;5093071;28;20213;-67
2023/12/15 00:20:09;;;;;;;3.73;2.73;;;21.40;57.60;;;;;;5093156;28;20188;-67
2023/12/15 00:22:35;;;;;;;3.90;3.10;;;21.40;57.60;;;;;;5093195;28;20197;-66
2023/12/15 00:25:00;;;;;;;5.30;3.70;;;21.40;57.60;;;;;;5093093;28;20173;-65
2023/12/15 00:27:26;;;;;;;4.70;3.30;;;21.40;57.60;;;;;;5092895;28;20185;-67
2023/12/15 00:29:52;;;;;;;3.30;2.97;;;21.40;57.60;;;;;;5074726;28;20251;-66
2023/12/15 00:32:17;;;;;;;4.60;3.63;;;21.40;57.60;;;;;;5092777;28;20181;-66
2023/12/15 00:34:43;;;;;;;3.43;3.00;;;21.40;57.60;;;;;;5091413;28;20184;-67
2023/12/15 00:37:10;;;;;;;4.07;3.57;;;21.40;57.60;;;;;;5091735;28;20300;-66
2023/12/15 00:39:36;;;;;;;3.23;2.80;;;21.30;57.50;;;;;;5092892;28;20213;-65
2023/12/15 00:42:03;;;;;;;3.83;2.90;;;21.40;57.60;;;;;;5091328;28;20581;-66
2023/12/15 00:44:29;;;;;;;3.50;3.10;;;21.30;58.00;;;;;;5092659;28;20436;-67
2023/12/15 00:46:54;;;;;;;4.10;3.67;;;21.30;57.50;;;;;;5087209;28;20582;-67
2023/12/15 00:49:20;;;;;;;3.60;3.23;;;21.30;57.50;;;;;;5087866;28;20655;-67
2023/12/15 00:51:46;;;;;;;4.53;3.40;;;21.30;57.50;;;;;;5091185;28;20165;-67
2023/12/15 00:54:11;;;;;;;3.10;2.80;;;21.30;57.50;;;;;;5089072;28;20242;-67
2023/12/15 00:56:37;;;;;;;3.33;3.00;;;21.30;57.50;;;;;;5090599;28;20197;-67
2023/12/15 00:59:04;;;;;;;3.83;3.23;;;21.30;57.50;;;;;;5089274;28;20204;-67
2023/12/15 01:01:30;;;;;;;4.80;3.47;;;21.30;57.50;;;;;;5091505;28;20296;-67
2023/12/15 01:03:55;;;;;;;4.63;3.30;;;21.30;57.50;;;;;;5073231;28;20511;-67
2023/12/15 01:06:21;;;;;;;5.00;3.30;;;21.30;57.50;;;;;;5092167;28;20200;-67
2023/12/15 01:08:46;;;;;;;4.33;3.07;;;21.30;57.50;;;;;;5091936;28;20883;-67
2023/12/15 01:11:12;;;;;;;3.80;3.13;;;21.30;57.50;;;;;;5092100;28;20178;-67
2023/12/15 01:13:37;;;;;;;3.07;2.80;;;21.30;57.60;;;;;;5091855;28;20248;-67
2023/12/15 01:16:07;;;;;;;3.57;3.10;;;21.30;57.60;;;;;;5090386;28;20692;-67
2023/12/15 01:18:32;;;;;;;3.30;3.00;;;21.30;57.60;;;;;;5091702;28;20193;-67
2023/12/15 01:20:58;;;;;;;3.37;2.77;;;21.30;57.60;;;;;;5091562;28;20439;-67
2023/12/15 01:23:23;;;;;;;4.03;3.10;;;21.30;57.60;;;;;;5090336;28;20188;-67
2023/12/15 01:25:49;;;;;;;3.23;2.83;;;21.30;57.60;;;;;;5091517;28;20717;-67
2023/12/15 01:28:14;;;;;;;3.40;3.10;;;21.30;57.60;;;;;;5091582;28;20165;-66
2023/12/15 01:30:40;;;;;;;3.43;3.13;;;21.30;57.60;;;;;;5091495;28;20177;-67
2023/12/15 01:33:06;;;;;;;3.73;2.90;;;21.30;57.60;;;;;;5091525;28;20178;-66
2023/12/15 01:35:31;;;;;;;3.20;2.50;;;21.30;57.60;;;;;;5091288;28;20181;-67
2023/12/15 01:37:57;;;;;;;4.30;3.13;;;21.30;57.60;;;;;;5091469;28;20186;-67
2023/12/15 01:40:22;;;;;;;3.17;2.60;;;21.30;57.50;;;;;;5091201;28;20173;-67
2023/12/15 01:42:48;;;;;;;2.97;2.67;;;21.30;57.50;;;;;;5091562;28;20280;-67
2023/12/15 01:45:14;;;;;;;3.00;2.70;;;21.30;57.50;;;;;;5089844;28;20177;-67
2023/12/15 01:47:39;;;;;;;4.10;3.00;;;21.30;57.50;;;;;;5091047;28;20270;-67
2023/12/15 01:50:08;;;;;;;2.80;2.37;;;21.30;57.50;;;;;;5091409;28;20174;-67
2023/12/15 01:52:34;;;;;;;3.33;3.00;;;21.30;57.50;;;;;;5091144;28;20173;-67
2023/12/15 01:55:00;;;;;;;3.50;2.67;;;21.30;57.50;;;;;;5091018;28;20502;-65
2023/12/15 01:57:25;;;;;;;3.30;2.47;;;21.40;57.60;;;;;;5090863;28;20193;-67
2023/12/15 01:59:51;;;;;;;3.20;2.57;;;21.30;57.50;;;;;;5090946;28;20717;-67
2023/12/15 02:02:17;;;;;;;4.17;2.73;;;21.40;57.60;;;;;;5090882;28;20237;-67
2023/12/15 02:04:44;;;;;;;3.50;2.43;;;21.30;57.50;;;;;;5090891;28;20172;-67
2023/12/15 02:07:10;;;;;;;3.57;2.70;;;21.40;57.60;;;;;;5090835;28;20438;-67
2023/12/15 02:09:37;;;;;;;3.30;2.40;;;21.30;57.50;;;;;;5090715;28;20408;-67
2023/12/15 02:12:03;;;;;;;3.00;2.70;;;21.30;57.50;;;;;;5082916;28;20184;-67
2023/12/15 02:14:29;;;;;;;3.87;2.67;;;21.40;57.60;;;;;;5088858;28;20419;-67
2023/12/15 02:16:55;;;;;;;2.77;2.50;;;21.30;57.50;;;;;;5088570;28;20489;-67
2023/12/15 02:19:20;;;;;;;2.90;2.63;;;21.30;57.50;;;;;;5089277;28;20212;-68
2023/12/15 02:21:46;;;;;;;3.87;2.70;;;21.30;58.00;;;;;;5090379;28;20212;-67
2023/12/15 02:24:12;;;;;;;3.23;2.33;;;21.30;57.50;;;;;;5090403;28;20169;-67
2023/12/15 02:26:37;;;;;;;3.03;2.60;;;21.30;57.50;;;;;;5088989;28;20194;-67
2023/12/15 02:29:03;;;;;;;2.53;2.27;;;21.30;57.50;;;;;;5089090;28;20177;-67
2023/12/15 02:31:28;;;;;;;3.07;2.80;;;21.30;57.50;;;;;;5090373;28;20711;-67
2023/12/15 02:33:54;;;;;;;2.67;2.47;;;21.30;57.50;;;;;;5090386;28;20208;-66
2023/12/15 02:36:21;;;;;;;4.60;3.00;;;21.30;57.50;;;;;;5090477;28;20732;-67
2023/12/15 02:38:46;;;;;;;4.70;3.00;;;21.30;57.50;;;;;;5090551;28;20230;-67
2023/12/15 02:41:13;;;;;;;2.80;2.43;;;21.30;57.50;;;;;;5090164;28;20451;-66
2023/12/15 02:43:39;;;;;;;3.10;2.50;;;21.30;58.00;;;;;;5055452;28;20219;-67
2023/12/15 02:46:06;;;;;;;3.60;2.77;;;21.30;57.50;;;;;;5071937;28;21152;-67
2023/12/15 02:48:32;;;;;;;3.20;2.67;;;21.30;57.50;;;;;;5088870;28;20453;-67
2023/12/15 02:50:58;;;;;;;2.83;2.33;;;21.30;57.50;;;;;;5089725;28;20457;-67
2023/12/15 02:53:24;;;;;;;3.77;2.40;;;21.30;57.50;;;;;;5090428;28;20419;-66
2023/12/15 02:55:49;;;;;;;2.53;2.30;;;21.30;57.50;;;;;;5090094;28;20596;-67
2023/12/15 02:58:17;;;;;;;3.90;2.60;;;21.30;57.50;;;;;;5071901;28;20189;-67
2023/12/15 03:00:43;;;;;;;2.97;2.20;;;21.30;57.50;;;;;;5088595;28;20231;-67
2023/12/15 03:03:08;;;;;;;3.47;2.53;;;21.30;57.60;;;;;;5090251;28;20415;-67
2023/12/15 03:05:35;;;;;;;2.90;2.60;;;21.20;57.50;;;;;;5088614;28;20512;-67
2023/12/15 03:08:01;;;;;;;2.60;2.40;;;21.30;58.20;;;;;;5088531;28;20177;-67
2023/12/15 03:10:26;;;;;;;3.97;3.03;;;21.20;57.50;;;;;;5088560;28;20412;-67
2023/12/15 03:12:52;;;;;;;2.60;2.30;;;21.30;57.60;;;;;;5090004;28;20527;-67
2023/12/15 03:15:18;;;;;;;2.77;2.47;;;21.30;57.60;;;;;;5089907;28;20162;-67
2023/12/15 03:17:43;;;;;;;3.10;2.47;;;21.30;57.60;;;;;;5088309;28;20197;-67
2023/12/15 03:20:09;;;;;;;3.13;2.37;;;21.30;57.60;;;;;;5088485;28;20174;-67
2023/12/15 03:22:36;;;;;;;2.50;2.30;;;21.20;57.50;;;;;;5088740;28;20209;-67
2023/12/15 03:25:01;;;;;;;2.57;2.10;;;21.20;57.50;;;;;;5089867;28;20408;-66
2023/12/15 03:27:27;;;;;;;3.40;2.37;;;21.20;57.60;;;;;;5092691;28;20430;-66
2023/12/15 03:29:52;;;;;;;2.30;2.10;;;21.20;57.50;;;;;;5092710;28;20170;-67
2023/12/15 03:32:18;;;;;;;2.60;2.20;;;21.30;57.60;;;;;;5093729;28;20599;-67
2023/12/15 03:34:44;;;;;;;2.27;1.97;;;21.30;57.60;;;;;;5093663;28;20223;-67
2023/12/15 03:37:09;;;;;;;2.67;2.30;;;21.30;57.60;;;;;;5092240;28;20698;-67
2023/12/15 03:39:35;;;;;;;2.90;2.40;;;21.30;57.50;;;;;;5093878;28;20272;-66
2023/12/15 03:42:06;;;;;;;3.00;2.27;;;21.20;57.50;;;;;;5093388;28;20652;-66
2023/12/15 03:44:33;;;;;;;2.83;2.20;;;21.30;57.50;;;;;;5075941;28;20399;-67
2023/12/15 03:46:59;;;;;;;3.13;2.20;;;21.30;57.50;;;;;;5091989;28;20422;-67
2023/12/15 03:49:24;;;;;;;2.50;2.20;;;21.20;57.50;;;;;;5093418;28;20442;-67
2023/12/15 03:51:50;;;;;;;3.57;2.40;;;21.30;57.50;;;;;;5091965;28;20424;-67
2023/12/15 03:54:16;;;;;;;2.87;2.13;;;21.20;57.50;;;;;;5093296;28;20238;-68
2023/12/15 03:56:41;;;;;;;3.03;2.07;;;21.20;57.50;;;;;;5091808;28;20288;-67
2023/12/15 03:59:07;;;;;;;2.40;2.10;;;21.20;57.50;;;;;;5091914;28;20243;-67
2023/12/15 04:01:32;;;;;;;2.83;2.13;;;21.20;57.50;;;;;;5093127;28;20209;-67
2023/12/15 04:03:58;;;;;;;2.47;2.27;;;21.20;57.50;;;;;;5091871;28;20183;-66
2023/12/15 04:06:24;;;;;;;2.30;2.10;;;21.20;57.50;;;;;;5092954;28;20289;-67
2023/12/15 04:08:50;;;;;;;2.63;2.10;;;21.20;57.50;;;;;;5091646;28;20260;-66
2023/12/15 04:11:16;;;;;;;3.73;2.03;;;21.20;57.50;;;;;;5074717;28;20181;-67
2023/12/15 04:13:42;;;;;;;4.00;2.47;;;21.20;57.50;;;;;;5093218;28;20592;-67
2023/12/15 04:16:08;;;;;;;4.13;2.80;;;21.20;57.50;;;;;;5091530;28;20427;-67
2023/12/15 04:18:34;;;;;;;2.57;1.97;;;21.20;57.50;;;;;;5091662;28;20201;-67
2023/12/15 04:21:02;;;;;;;3.20;2.50;;;21.20;57.50;;;;;;5092988;28;20478;-67
2023/12/15 04:23:28;;;;;;;2.90;2.17;;;21.20;57.50;;;;;;5092931;28;20408;-67
2023/12/15 04:25:53;;;;;;;2.00;1.80;;;21.20;57.60;;;;;;5092628;28;20476;-67
2023/12/15 04:28:19;;;;;;;5.30;2.73;;;21.20;57.50;;;;;;5092846;28;20200;-67
2023/12/15 04:30:45;;;;;;;2.93;2.20;;;21.20;57.60;;;;;;5091268;28;20607;-67
2023/12/15 04:33:10;;;;;;;3.33;2.60;;;21.20;57.60;;;;;;5092471;28;20650;-67
2023/12/15 04:35:36;;;;;;;3.40;2.20;;;21.10;57.40;;;;;;5092502;28;20208;-67
2023/12/15 04:38:02;;;;;;;2.57;2.20;;;21.10;57.50;;;;;;5091415;28;20197;-67
2023/12/15 04:40:27;;;;;;;3.43;2.27;;;21.20;57.50;;;;;;5074171;28;20185;-67
2023/12/15 04:42:53;;;;;;;2.50;2.03;;;21.20;57.60;;;;;;5090971;28;20185;-67
2023/12/15 04:45:18;;;;;;;2.53;2.23;;;21.10;57.50;;;;;;5090987;28;20173;-67
2023/12/15 04:47:44;;;;;;;2.47;1.80;;;21.20;58.10;;;;;;5092401;28;20229;-67
2023/12/15 04:50:09;;;;;;;2.47;1.80;;;21.20;57.60;;;;;;5092471;28;20188;-67
2023/12/15 04:52:35;;;;;;;2.40;2.20;;;21.20;57.60;;;;;;5090775;28;20186;-67
2023/12/15 04:55:01;;;;;;;2.10;1.90;;;21.20;57.60;;;;;;5090816;28;20625;-67
2023/12/15 04:57:26;;;;;;;2.83;2.20;;;21.20;57.50;;;;;;5092033;28;20193;-67
2023/12/15 04:59:52;;;;;;;2.60;2.17;;;21.20;57.50;;;;;;5091987;28;20181;-67
2023/12/15 05:02:18;;;;;;;2.53;2.00;;;21.20;57.50;;;;;;5091825;28;20201;-67
2023/12/15 05:04:44;;;;;;;2.50;2.07;;;21.20;57.50;;;;;;5090924;28;20553;-67
2023/12/15 05:07:09;;;;;;;2.33;1.70;;;21.20;57.50;;;;;;5090427;28;20439;-67
2023/12/15 05:09:35;;;;;;;3.10;2.30;;;21.20;57.50;;;;;;5090465;28;20180;-67
2023/12/15 05:12:01;;;;;;;1.93;1.73;;;21.20;57.50;;;;;;5091790;28;20222;-67
2023/12/15 05:14:27;;;;;;;2.87;2.10;;;21.20;57.40;;;;;;5091979;28;20185;-66
2023/12/15 05:16:53;;;;;;;2.60;2.33;;;21.20;57.40;;;;;;5091609;28;20430;-67
2023/12/15 05:19:18;;;;;;;2.70;2.30;;;21.20;57.50;;;;;;5091504;28;20645;-66
2023/12/15 05:21:44;;;;;;;2.47;1.77;;;21.30;57.50;;;;;;5089923;28;20594;-67
2023/12/15 05:24:09;;;;;;;2.10;1.80;;;21.20;57.40;;;;;;5091634;28;20182;-67
2023/12/15 05:26:35;;;;;;;2.23;1.73;;;21.20;57.40;;;;;;5091524;28;20243;-67
2023/12/15 05:29:01;;;;;;;2.37;1.97;;;21.20;57.40;;;;;;5090141;28;20701;-65
2023/12/15 05:31:26;;;;;;;2.47;2.00;;;21.20;58.00;;;;;;5091532;28;20528;-67
2023/12/15 05:33:52;;;;;;;3.00;2.10;;;21.20;57.40;;;;;;5090220;28;20178;-67
2023/12/15 05:36:19;;;;;;;1.93;1.77;;;21.20;57.40;;;;;;5091627;28;20197;-67
2023/12/15 05:38:46;;;;;;;2.93;1.93;;;21.30;57.50;;;;;;5091317;28;20182;-67
2023/12/15 05:41:11;;;;;;;2.57;2.33;;;21.20;57.40;;;;;;5073087;28;20478;-66
2023/12/15 05:43:37;;;;;;;3.07;2.37;;;21.20;57.40;;;;;;5089853;28;20420;-67
2023/12/15 05:46:02;;;;;;;2.40;1.93;;;21.20;57.40;;;;;;5089655;28;20196;-67
2023/12/15 05:48:28;;;;;;;3.40;2.37;;;21.30;57.40;;;;;;5088821;28;20676;-67
2023/12/15 05:50:54;;;;;;;2.00;1.80;;;21.20;57.40;;;;;;5090936;28;20219;-67
2023/12/15 05:53:19;;;;;;;2.40;2.20;;;21.20;57.40;;;;;;5089589;28;20269;-67
2023/12/15 05:55:45;;;;;;;2.30;2.10;;;21.20;57.40;;;;;;5091021;28;20607;-67
2023/12/15 05:58:10;;;;;;;2.47;2.00;;;21.20;57.40;;;;;;5090968;28;20178;-67
2023/12/15 06:00:36;;;;;;;2.00;1.73;;;21.30;57.50;;;;;;5091085;28;20230;-67
2023/12/15 06:03:01;;;;;;;2.47;1.90;;;21.30;57.50;;;;;;5090893;28;20618;-65
2023/12/15 06:05:28;;;;;;;2.80;2.10;;;21.30;57.50;;;;;;5089468;28;20161;-66
2023/12/15 06:07:53;;;;;;;2.60;1.70;;;21.30;57.50;;;;;;5090629;28;20661;-67
2023/12/15 06:10:19;;;;;;;2.20;1.77;;;21.30;57.50;;;;;;5090864;28;20408;-67
2023/12/15 06:12:45;;;;;;;2.67;2.47;;;21.30;57.50;;;;;;5090760;28;20207;-66
2023/12/15 06:15:11;;;;;;;2.10;1.90;;;21.30;57.50;;;;;;5090910;28;20888;-66
2023/12/15 06:17:36;;;;;;;2.20;1.93;;;21.30;57.50;;;;;;5088547;28;20559;-65
2023/12/15 06:20:02;;;;;;;3.03;1.73;;;21.30;57.50;;;;;;5072706;28;20534;-66
2023/12/15 06:22:28;;;;;;;2.07;1.87;;;21.30;57.50;;;;;;5090458;28;20691;-66
2023/12/15 06:24:54;;;;;;;1.90;1.80;;;21.30;57.50;;;;;;5090329;28;20408;-65
2023/12/15 06:27:19;;;;;;;2.30;2.10;;;21.30;57.40;;;;;;5089347;28;20773;-65
2023/12/15 06:29:45;;;;;;;2.60;1.53;;;21.30;58.00;;;;;;5089125;28;20226;-64
2023/12/15 06:32:12;;;;;;;2.30;2.10;;;21.30;57.50;;;;;;5089179;28;20196;-66
2023/12/15 06:34:42;;;;;;;3.10;1.80;;;21.30;57.50;;;;;;5090576;28;20186;-65
2023/12/15 06:37:07;;;;;;;2.80;1.67;;;21.30;57.50;;;;;;5072154;28;20526;-65
2023/12/15 06:39:33;;;;;;;2.30;1.80;;;21.40;57.60;;;;;;5090411;28;20533;-65
2023/12/15 06:41:58;;;;;;;2.63;1.67;;;21.40;57.60;;;;;;5089108;28;20284;-67
2023/12/15 06:44:24;;;;;;;2.20;1.90;;;21.40;57.50;;;;;;5090433;28;20174;-65
2023/12/15 06:46:50;;;;;;;2.17;1.60;;;21.50;57.60;;;;;;5090439;28;20197;-66
2023/12/15 06:49:17;;;;;;;2.30;2.10;;;21.40;57.50;;;;;;5090535;28;20644;-65
2023/12/15 06:51:43;;;;;;;2.13;1.90;;;21.50;57.60;;;;;;5090217;28;20256;-65
2023/12/15 06:54:09;;;;;;;2.67;2.40;;;21.50;57.50;;;;;;5089110;28;20490;-65
2023/12/15 06:56:38;;;;;;;2.73;1.93;;;21.50;57.50;;;;;;5071898;28;20439;-66
2023/12/15 06:59:04;;;;;;;2.90;2.10;;;21.50;57.50;;;;;;5088729;28;20196;-66
2023/12/15 07:01:30;;;;;;;2.53;2.00;;;21.50;57.50;;;;;;5091334;28;20455;-66
2023/12/15 07:03:55;;;;;;;1.80;1.63;;;21.50;57.50;;;;;;5093055;28;20636;-67
2023/12/15 07:06:21;;;;;;;3.23;1.80;;;21.50;57.50;;;;;;5094500;28;20193;-66
2023/12/15 07:08:50;;;;;;;3.50;1.57;;;21.60;57.50;;;;;;5094269;28;20266;-66
2023/12/15 07:11:16;;;;;;;2.10;1.60;;;21.60;57.50;;;;;;5092754;28;20186;-65
2023/12/15 07:13:41;;;;;;;1.87;1.67;;;21.60;57.40;;;;;;5094172;28;20407;-66
2023/12/15 07:16:08;;;;;;;2.30;2.00;;;21.60;57.40;;;;;;5076271;28;20227;-66
2023/12/15 07:18:34;;;;;;;2.47;1.80;;;21.60;57.40;;;;;;5092612;28;20250;-66
2023/12/15 07:21:00;;;;;;;3.60;1.50;;;21.60;57.40;;;;;;5094102;28;20848;-66
2023/12/15 07:23:25;;;;;;;2.33;1.70;;;21.60;57.40;;;;;;5092653;28;20219;-65
2023/12/15 07:25:51;;;;;;;2.10;1.83;;;21.60;57.40;;;;;;5092601;28;20280;-66
2023/12/15 07:28:16;;;;;;;4.10;1.53;;;21.70;57.40;;;;;;5092499;28;20173;-65
2023/12/15 07:30:42;;;;;;;3.10;2.00;;;21.70;57.40;;;;;;5092476;28;20519;-66
2023/12/15 07:33:08;;;;;;;2.43;1.93;;;21.70;57.40;;;;;;5092439;28;20257;-66
2023/12/15 07:35:34;;;;;;;1.67;1.50;;;21.70;57.30;;;;;;5092383;28;20636;-65
2023/12/15 07:37:59;;;;;;;2.43;1.60;;;21.70;57.40;;;;;;5092347;28;20438;-66
2023/12/15 07:40:25;;;;;;;6.37;1.60;;;21.70;57.30;;;;;;5092315;28;20281;-65
2023/12/15 07:42:50;;;;;;;2.13;1.83;;;21.70;57.30;;;;;;5092195;28;20188;-65
2023/12/15 07:45:16;;;;;;;2.00;1.80;;;21.70;57.90;;;;;;5075363;28;20182;-66
2023/12/15 07:47:42;;;;;;;4.40;1.87;;;21.70;57.40;;;;;;5093469;28;20247;-66
2023/12/15 07:50:07;;;;;;;2.23;1.50;;;21.70;57.40;;;;;;5092145;28;20268;-65
2023/12/15 07:52:33;;;;;;;2.13;1.63;;;21.70;57.40;;;;;;5092193;28;20694;-65
2023/12/15 07:54:58;;;;;;;1.80;1.50;;;21.70;57.40;;;;;;5093343;28;20244;-66
2023/12/15 07:57:24;;;;;;;2.27;1.50;;;21.70;57.40;;;;;;5091980;28;20194;-65
2023/12/15 07:59:50;;;;;;;1.73;1.50;;;21.70;57.40;;;;;;5093573;28;20538;-66
2023/12/15 08:02:19;;;;;;;2.07;1.70;;;21.70;57.40;;;;;;5074938;28;20205;-65
2023/12/15 08:04:45;;;;;;;2.20;1.90;;;21.70;57.40;;;;;;5093240;28;20177;-65
2023/12/15 08:07:11;;;;;;;2.37;1.70;;;21.70;57.40;;;;;;5092955;28;20432;-66
2023/12/15 08:09:37;;;;;;;2.23;1.43;;;21.70;57.40;;;;;;5091650;28;20434;-66
2023/12/15 08:12:03;;;;;;;1.80;1.50;;;21.70;57.40;;;;;;5074783;28;20247;-66
2023/12/15 08:14:28;;;;;;;1.80;1.37;;;21.70;57.40;;;;;;5093037;28;20220;-65
2023/12/15 08:16:54;;;;;;;2.30;1.57;;;21.70;57.40;;;;;;5091474;28;20436;-66
2023/12/15 08:19:20;;;;;;;2.47;2.00;;;21.70;57.40;;;;;;5092821;28;20674;-65
2023/12/15 08:21:47;;;;;;;2.73;1.90;;;21.70;57.40;;;;;;5091353;28;20543;-65
2023/12/15 08:24:13;;;;;;;2.00;1.80;;;21.70;57.40;;;;;;5074798;28;20177;-65
2023/12/15 08:26:39;;;;;;;3.80;2.00;;;21.70;57.40;;;;;;5091367;28;20948;-65
2023/12/15 08:29:05;;;;;;;2.40;1.43;;;21.70;57.40;;;;;;5092680;28;20415;-65
2023/12/15 08:31:30;;;;;;;3.20;1.73;;;21.70;57.40;;;;;;5092549;28;20547;-66
2023/12/15 08:33:56;;;;;;;1.73;1.50;;;21.70;57.30;;;;;;5091286;28;20212;-65
2023/12/15 08:36:21;;;;;;;2.23;1.77;;;21.70;57.40;;;;;;5091423;28;20676;-66
2023/12/15 08:38:47;;;;;;;1.63;1.50;;;21.70;57.40;;;;;;5092501;28;20699;-65
2023/12/15 08:41:13;;;;;;;1.93;1.60;;;21.70;57.30;;;;;;5092349;28;20197;-65
2023/12/15 08:43:39;;;;;;;2.17;1.57;;;21.70;57.30;;;;;;5092608;28;20177;-66
2023/12/15 08:46:05;;;;;;;1.90;1.60;;;21.70;57.90;;;;;;5057338;28;20566;-65
2023/12/15 08:48:30;;;;;;;1.97;1.87;;;21.80;57.40;;;;;;5090974;28;20255;-66
2023/12/15 08:50:56;;;;;;;1.90;1.60;;;21.80;57.40;;;;;;5090877;28;20420;-66
2023/12/15 08:53:21;;;;;;;3.20;1.90;;;21.80;57.40;;;;;;5092201;28;20170;-65
2023/12/15 08:55:48;;;;;;;1.50;1.27;;;21.80;57.40;;;;;;5090859;28;20190;-66
2023/12/15 08:58:14;;;;;;;1.87;1.60;;;21.70;57.30;;;;;;5090733;28;20201;-66
2023/12/15 09:00:40;;;;;;;2.63;1.70;;;21.70;57.30;;;;;;5092014;28;20411;-65
2023/12/15 09:03:07;;;;;;;1.97;1.50;;;21.70;57.30;;;;;;5090460;28;20469;-65
2023/12/15 09:05:34;;;;;;;2.10;1.40;;;21.70;57.40;;;;;;5092183;28;20181;-66
2023/12/15 09:08:00;;;;;;;1.90;1.47;;;21.70;57.40;;;;;;5073749;28;20450;-64
2023/12/15 09:10:26;;;;;;;1.80;1.43;;;21.70;57.40;;;;;;5091859;28;20416;-65
2023/12/15 09:12:52;;;;;;;1.50;1.40;;;21.70;57.40;;;;;;5091878;28;20415;-66
2023/12/15 09:15:18;;;;;;;2.60;2.03;;;21.70;57.40;;;;;;5092135;28;20423;-66
2023/12/15 09:17:45;;;;;;;1.70;1.50;;;21.80;57.50;;;;;;5091533;28;20508;-66
2023/12/15 09:20:12;;;;;;;2.27;1.43;;;21.70;57.40;;;;;;5091766;28;20248;-66
2023/12/15 09:22:38;;;;;;;2.43;1.50;;;21.70;57.40;;;;;;5090160;28;21028;-66
2023/12/15 09:25:05;;;;;;;2.43;1.53;;;21.70;57.40;;;;;;5089867;28;20473;-66
2023/12/15 09:27:31;;;;;;;1.63;1.50;;;21.70;57.40;;;;;;5090130;28;20427;-65
2023/12/15 09:29:57;;;;;;;1.93;1.57;;;21.70;57.40;;;;;;5090123;28;21005;-66
2023/12/15 09:32:23;;;;;;;2.20;1.33;;;21.70;57.40;;;;;;5090169;28;20670;-66
2023/12/15 09:34:48;;;;;;;2.17;1.80;;;21.70;57.40;;;;;;5091479;28;20170;-66
2023/12/15 09:37:14;;;;;;;2.30;1.23;;;21.70;57.40;;;;;;5091416;28;20444;-66
2023/12/15 09:39:40;;;;;;;1.50;1.40;;;21.70;57.40;;;;;;5091352;28;20251;-66
2023/12/15 09:42:05;;;;;;;1.80;1.30;;;21.70;57.40;;;;;;5091219;28;20204;-66
2023/12/15 09:44:31;;;;;;;1.33;1.10;;;21.70;57.40;;;;;;5090100;28;20229;-66
2023/12/15 09:46:58;;;;;;;1.90;1.43;;;21.70;57.40;;;;;;5089686;28;20726;-65
2023/12/15 09:49:25;;;;;;;2.13;1.27;;;21.70;57.40;;;;;;5091174;28;20208;-65
2023/12/15 09:51:51;;;;;;;1.80;1.50;;;21.70;57.40;;;;;;5091149;28;20407;-65
2023/12/15 09:54:18;;;;;;;2.80;1.70;;;21.70;57.40;;;;;;5089747;28;20416;-66
2023/12/15 09:56:44;;;;;;;1.73;1.63;;;21.70;57.40;;;;;;5089548;28;20440;-65
2023/12/15 09:59:10;;;;;;;1.50;1.40;;;21.70;57.40;;;;;;5091294;28;20532;-66
2023/12/15 10:01:37;;;;;;;1.50;1.17;;;21.70;57.40;;;;;;5090855;28;20452;-66
2023/12/15 10:04:04;;;;;;;1.93;1.50;;;21.70;57.40;;;;;;5091224;28;20539;-66
2023/12/15 10:06:34;;;;;;;2.17;1.50;;;21.70;57.40;;;;;;5089848;28;20770;-66
2023/12/15 10:08:59;;;;;;;1.60;1.20;;;21.70;57.40;;;;;;5090886;28;20412;-66
2023/12/15 10:11:27;;;;;;;2.07;1.20;;;21.70;57.40;;;;;;5091116;28;20419;-65
2023/12/15 10:13:53;;;;;;;2.27;1.50;;;21.70;57.40;;;;;;5090892;28;20729;-65
2023/12/15 10:16:20;;;;;;;1.60;1.47;;;21.70;57.40;;;;;;5089643;28;20454;-66
2023/12/15 10:18:46;;;;;;;1.97;1.57;;;21.70;57.40;;;;;;5089313;28;20488;-66
2023/12/15 10:21:12;;;;;;;1.37;1.20;;;21.70;57.40;;;;;;5090615;28;21321;-66
2023/12/15 10:23:38;;;;;;;1.30;1.20;;;21.70;57.50;;;;;;5089221;28;20408;-66
2023/12/15 10:26:05;;;;;;;1.40;1.30;;;21.70;57.40;;;;;;5090475;28;20419;-65
2023/12/15 10:28:36;;;;;;;1.97;1.60;;;21.70;57.40;;;;;;5090523;28;20176;-65
2023/12/15 10:31:02;;;;;;;2.33;1.30;;;21.70;57.40;;;;;;5090830;28;20392;-65
2023/12/15 10:33:29;;;;;;;2.23;1.73;;;21.70;57.50;;;;;;5090483;28;20407;-66
2023/12/15 10:35:56;;;;;;;2.40;1.57;;;21.70;57.40;;;;;;5088107;28;20439;-66
2023/12/15 10:38:22;;;;;;;2.20;1.53;;;21.70;57.40;;;;;;5090418;28;20404;-66
2023/12/15 10:40:48;;;;;;;1.67;1.57;;;21.70;57.50;;;;;;5090265;28;20917;-66
2023/12/15 10:43:14;;;;;;;1.20;1.10;;;21.70;57.40;;;;;;5089010;28;20490;-66
2023/12/15 10:45:40;;;;;;;1.73;1.30;;;21.70;57.40;;;;;;5090220;28;20487;-66
2023/12/15 10:48:07;;;;;;;2.80;1.70;;;21.70;57.50;;;;;;5090286;28;20252;-65
2023/12/15 10:50:33;;;;;;;1.53;1.43;;;21.70;57.50;;;;;;5090256;28;20225;-66
2023/12/15 10:53:00;;;;;;;1.93;1.30;;;21.70;57.50;;;;;;5090456;28;20408;-66
2023/12/15 10:55:28;;;;;;;1.90;1.30;;;21.70;57.50;;;;;;5090022;28;20406;-66
2023/12/15 10:57:58;;;;;;;1.73;1.20;;;21.70;57.50;;;;;;5090096;28;20941;-65
2023/12/15 11:00:24;;;;;;;1.67;1.57;;;21.70;57.50;;;;;;5088761;28;20775;-65
2023/12/15 11:02:51;;;;;;;1.70;1.60;;;21.70;57.50;;;;;;5088552;28;20444;-66
2023/12/15 11:05:20;;;;;;;1.73;1.30;;;21.70;57.50;;;;;;5088602;28;20465;-66
2023/12/15 11:07:49;;;;;;;2.23;1.30;;;21.70;57.50;;;;;;5089995;28;20428;-66
2023/12/15 11:10:16;;;;;;;1.60;1.20;;;21.70;57.50;;;;;;5090303;28;20412;-65
2023/12/15 11:12:42;;;;;;;1.97;1.40;;;21.70;57.50;;;;;;5090005;28;20414;-66
2023/12/15 11:15:17;;;;;;;1.50;1.20;;;21.70;57.50;;;;;;5090241;28;20411;-66
2023/12/15 11:17:47;;;;;;;2.67;1.50;;;21.70;57.50;;;;;;5089815;28;20197;-66
2023/12/15 11:20:22;;;;;;;2.00;1.27;;;21.70;57.50;;;;;;5090265;28;20441;-66
2023/12/15 11:22:53;;;;;;;1.80;1.53;;;21.70;57.50;;;;;;5089743;28;20572;-66
2023/12/15 11:25:20;;;;;;;2.10;1.40;;;21.70;57.50;;;;;;5088535;28;20774;-66
2023/12/15 11:28:08;;;;;;;1.43;1.20;;;21.70;57.50;;;;;;5089996;28;20435;-66
2023/12/15 11:30:42;;;;;;;1.50;1.13;;;21.70;57.50;;;;;;5088404;28;20502;-66
2023/12/15 11:33:40;;;;;;;1.53;1.20;;;21.70;57.50;;;;;;5089801;28;20384;-66
2023/12/15 11:36:07;;;;;;;1.73;1.30;;;21.70;57.50;;;;;;5089686;28;20462;-66
2023/12/15 11:38:35;;;;;;;3.20;1.50;;;21.60;57.40;;;;;;5089956;28;20823;-67
2023/12/15 11:41:01;;;;;;;1.60;1.43;;;21.60;57.40;;;;;;5089555;28;20500;-66
2023/12/15 11:43:36;;;;;;;1.40;1.20;;;21.60;57.40;;;;;;5088302;28;20420;-66
2023/12/15 11:46:03;;;;;;;2.30;1.20;;;21.60;57.50;;;;;;5088537;28;20753;-66
2023/12/15 11:48:29;;;;;;;1.43;1.23;;;21.60;57.50;;;;;;5092004;28;20408;-65
2023/12/15 11:50:55;;;;;;;1.90;1.50;;;21.60;57.50;;;;;;5093414;28;20465;-66
2023/12/15 11:53:22;;;;;;;3.27;1.73;;;21.60;57.50;;;;;;5058895;28;20211;-66
2023/12/15 11:55:49;;;;;;;4.30;1.50;;;21.60;57.50;;;;;;5071484;28;20444;-66
2023/12/15 11:58:15;;;;;;;1.70;1.43;;;21.60;57.50;;;;;;5071601;28;20408;-66
2023/12/15 12:00:41;;;;;;;1.90;1.50;;;21.60;57.50;;;;;;5072816;28;20411;-65
2023/12/15 12:03:09;;;;;;;3.00;1.50;;;21.60;58.00;;;;;;5073320;28;20416;-66
2023/12/15 12:05:35;;;;;;;3.57;2.07;;;21.60;57.50;;;;;;5073106;28;20411;-66
2023/12/15 12:08:01;;;;;;;3.60;1.87;;;21.60;57.50;;;;;;5073414;28;20404;-66
2023/12/15 12:10:31;;;;;;;3.80;2.03;;;21.60;57.50;;;;;;5072525;28;20166;-66
2023/12/15 12:12:57;;;;;;;3.20;2.00;;;21.60;57.50;;;;;;5072789;28;20411;-66
2023/12/15 12:15:23;;;;;;;3.30;2.70;;;21.60;57.50;;;;;;5071546;28;20465;-66
2023/12/15 12:17:48;;;;;;;3.57;2.20;;;21.60;57.50;;;;;;5072843;28;20950;-67
2023/12/15 12:20:14;;;;;;;6.60;2.57;;;21.60;57.50;;;;;;5072013;28;20178;-65
2023/12/15 12:22:43;;;;;;;4.90;3.30;;;21.60;57.50;;;;;;5073555;28;20699;-65
2023/12/15 12:25:16;;;;;;;4.90;3.10;;;21.60;57.50;;;;;;5071285;28;20194;-65
2023/12/15 12:27:42;;;;;;;6.60;3.40;;;21.60;57.50;;;;;;5072253;28;20539;-65
2023/12/15 12:30:17;;;;;;;7.70;3.97;;;21.60;57.50;;;;;;5072790;28;20906;-65
2023/12/15 12:32:43;;;;;;;8.97;4.57;;;21.70;57.60;;;;;;5071302;28;20436;-66
2023/12/15 12:35:09;;;;;;;11.50;5.13;;;21.60;57.50;;;;;;5072661;28;20430;-66
2023/12/15 12:37:35;;;;;;;12.07;6.17;;;21.70;57.50;;;;;;5070811;28;20506;-66
2023/12/15 12:40:03;;;;;;;14.27;5.80;;;21.70;57.60;;;;;;5070873;28;20439;-66